Olympic Champion — SYWD — position and weather

sailwx.info

Track history (hours):
 
Tides and Currents Weather Stations Pressure Air Temp Water Temp Dewpoint Dewpoint Depression Visibility Wind Speed Wind Dir Waves Ship Positions

Olympic Champion

Last reported at 2014-Aug-27 14:24 UTC. Time now 2014-Aug-27 17:12 UTC.
Position N 36°06' E 024°06'.

Length 204 m; draft 6.4 m.

Type: Passenger vessel. MMSI: 237280000.

Date/timePositionNaut miles runAvg speedWind from/ knotsBaromVisibWave heightAir tempDewpointWater temp
2014-Aug-27 14:24N 36°06' E 024°06'8721.8
2014-Aug-27 10:23N 37°32' E 023°45'1822.0
2014-Aug-27 09:33N 37°49' E 023°37'8 7.8
2014-Aug-27 08:33N 37°57' E 023°38'0 0.0
2014-Aug-27 07:33N 37°57' E 023°38'0 0.0
2014-Aug-27 06:33N 37°57' E 023°38'0 0.0
2014-Aug-27 05:33N 37°57' E 023°38'0 0.0
2014-Aug-27 04:33N 37°57' E 023°38'0 0.0
2014-Aug-27 03:33N 37°57' E 023°38'1111.1
2014-Aug-27 02:33N 37°46' E 023°42'4619.5
2014-Aug-27 00:13N 37°02' E 023°55'1519.4
2014-Aug-26 23:27N 36°47' E 023°57'1819.6
2014-Aug-26 22:32N 36°29' E 024°00'15 0.7
2014-Aug-26 00:33N 36°14' E 024°05'2019.6
2014-Aug-25 23:32N 36°34' E 024°00'6519.8
2014-Aug-25 20:15N 37°37' E 023°43'1419.7
2014-Aug-25 19:33N 37°50' E 023°37'7 6.7
2014-Aug-25 18:33N 37°57' E 023°38'0 0.0
2014-Aug-25 17:33N 37°57' E 023°38'0 0.0
2014-Aug-25 16:33N 37°57' E 023°38'0 0.0
2014-Aug-25 15:33N 37°57' E 023°38'0 0.0
2014-Aug-25 14:33N 37°57' E 023°38'0 0.0
2014-Aug-25 13:33N 37°57' E 023°38'0 0.0
2014-Aug-25 12:33N 37°57' E 023°38'0 0.0
2014-Aug-25 11:33N 37°57' E 023°38'0 0.0
2014-Aug-25 10:33N 37°57' E 023°38'0 0.0
2014-Aug-25 09:33N 37°57' E 023°38'0 0.0
2014-Aug-25 08:33N 37°57' E 023°38'0 0.0
2014-Aug-25 07:33N 37°57' E 023°38'0 0.0
2014-Aug-25 06:33N 37°57' E 023°38'0 0.0
2014-Aug-25 05:33N 37°57' E 023°38'0 0.0
2014-Aug-25 04:33N 37°57' E 023°38'0 0.0
2014-Aug-25 03:32N 37°57' E 023°38'1111.2
2014-Aug-25 02:33N 37°46' E 023°43'79 6.0
2014-Aug-24 13:17N 36°28' E 024°01'6222.4
2014-Aug-24 10:31N 37°29' E 023°46'2121.9
2014-Aug-24 09:33N 37°49' E 023°38'8 7.8
2014-Aug-24 08:33N 37°57' E 023°38'0 0.0
2014-Aug-24 07:33N 37°57' E 023°38'0 0.0
2014-Aug-24 06:33N 37°57' E 023°38'0 0.0
2014-Aug-24 05:33N 37°57' E 023°38'0 0.0
2014-Aug-24 04:33N 37°57' E 023°38'0 0.0
2014-Aug-24 03:33N 37°57' E 023°38'8 8.4
2014-Aug-24 02:33N 37°49' E 023°40'2120.0
2014-Aug-24 01:31N 37°29' E 023°47'2019.8
2014-Aug-24 00:30N 37°09' E 023°54'2219.8
2014-Aug-23 23:23N 36°47' E 023°56'2120.0
2014-Aug-23 22:21N 36°27' E 024°00'92 4.9
2014-Aug-23 03:33N 37°57' E 023°38'9 8.9
2014-Aug-23 02:33N 37°48' E 023°42'2019.6
2014-Aug-23 01:33N 37°29' E 023°48'2019.4
2014-Aug-23 00:32N 37°10' E 023°52'6719.6
2014-Aug-22 21:08N 36°04' E 024°07'71 7.2
2014-Aug-22 11:15N 37°14' E 023°50'1822.3
2014-Aug-22 10:26N 37°31' E 023°45'2022.1
2014-Aug-22 09:33N 37°50' E 023°37'7 7.2
2014-Aug-22 08:33N 37°57' E 023°38'0 0.0
2014-Aug-22 07:33N 37°57' E 023°38'0 0.0
2014-Aug-22 06:33N 37°57' E 023°38'0 0.0
2014-Aug-22 05:33N 37°57' E 023°38'0 0.0
2014-Aug-22 04:33N 37°57' E 023°38'0 0.0
2014-Aug-22 03:33N 37°57' E 023°38'9 8.7
2014-Aug-22 02:33N 37°49' E 023°42'2019.8
2014-Aug-22 01:33N 37°29' E 023°48'2119.7
2014-Aug-22 00:30N 37°09' E 023°52'2019.7
2014-Aug-21 23:30N 36°50' E 023°57'1919.8
2014-Aug-21 22:33N 36°31' E 024°01'2620.0
2014-Aug-21 21:14N 36°05' E 024°07'1420.4
2014-Aug-21 20:32N 35°51' E 024°10'22 4.9
2014-Aug-21 16:05N 35°29' E 024°11'5521.5
2014-Aug-21 13:30N 36°24' E 024°02'2222.3
2014-Aug-21 12:32N 36°45' E 023°58'3222.7
2014-Aug-21 11:08N 37°16' E 023°49'1322.3
2014-Aug-21 10:32N 37°29' E 023°46'2222.1
2014-Aug-21 09:33N 37°50' E 023°37'7 7.0
2014-Aug-21 08:33N 37°57' E 023°38'0 0.0
2014-Aug-21 07:33N 37°57' E 023°38'0 0.0
2014-Aug-21 06:33N 37°57' E 023°38'0 0.0
2014-Aug-21 05:33N 37°57' E 023°38'0 0.0
2014-Aug-21 04:33N 37°57' E 023°38'0 0.0
2014-Aug-21 03:33N 37°57' E 023°38'9 8.9
2014-Aug-21 02:33N 37°48' E 023°41'2419.0
2014-Aug-21 01:17N 37°25' E 023°49'1519.2
2014-Aug-21 00:30N 37°10' E 023°52'3819.6
2014-Aug-20 22:33N 36°32' E 023°60'2619.9
2014-Aug-20 21:14N 36°07' E 024°06'3620.3
2014-Aug-20 19:27N 35°31' E 024°12'12813.8
2014-Aug-20 10:11N 37°36' E 023°43'1422.3
2014-Aug-20 09:33N 37°50' E 023°37'7 7.4
2014-Aug-20 08:33N 37°57' E 023°38'0 0.0
2014-Aug-20 07:33N 37°57' E 023°38'0 0.0
2014-Aug-20 06:33N 37°57' E 023°38'0 0.0
2014-Aug-20 05:33N 37°57' E 023°38'0 0.0
2014-Aug-20 04:33N 37°57' E 023°38'0 0.0
2014-Aug-20 03:33N 37°57' E 023°38'1211.5
2014-Aug-20 02:33N 37°46' E 023°42'10 0.3
2014-Aug-18 20:23N 37°36' E 023°43'1618.8
2014-Aug-18 19:33N 37°51' E 023°37'6 6.4
2014-Aug-18 18:33N 37°57' E 023°38'0 0.0
2014-Aug-18 17:33N 37°57' E 023°38'0 0.0
2014-Aug-18 16:33N 37°57' E 023°38'0 0.0
2014-Aug-18 15:33N 37°57' E 023°38'0 0.0
2014-Aug-18 14:33N 37°57' E 023°38'0 0.0
2014-Aug-18 13:33N 37°57' E 023°38'0 0.0
2014-Aug-18 12:33N 37°57' E 023°38'0 0.0
2014-Aug-18 11:34N 37°57' E 023°38'0 0.0
2014-Aug-18 10:33N 37°57' E 023°38'0 0.0
2014-Aug-18 09:33N 37°57' E 023°38'0 0.0
2014-Aug-18 08:33N 37°57' E 023°38'0 0.0
2014-Aug-18 07:33N 37°57' E 023°38'0 0.0
2014-Aug-18 06:33N 37°57' E 023°38'0 0.0
2014-Aug-18 05:33N 37°57' E 023°38'0 0.0
2014-Aug-18 04:33N 37°57' E 023°38'1 1.1
2014-Aug-18 03:31N 37°56' E 023°37'1717.4
2014-Aug-18 02:33N 37°41' E 023°45'  
Track history (hours):
 
Tides and Currents Weather Stations Pressure Air Temp Water Temp Dewpoint Dewpoint Depression Visibility Wind Speed Wind Dir Waves Ship Positions

Olympic Champion

Last reported at 2014-Aug-27 14:24 UTC. Time now 2014-Aug-27 17:12 UTC.
Position N 36°06' E 024°06'.

Length 204 m; draft 6.4 m.

Type: Passenger vessel. MMSI: 237280000.

Date/timePositionNaut miles runAvg speedWind from/ knotsBaromVisibWave heightAir tempDewpointWater temp
2014-Aug-27 14:24N 36°06' E 024°06'8721.8
2014-Aug-27 10:23N 37°32' E 023°45'1822.0
2014-Aug-27 09:33N 37°49' E 023°37'8 7.8
2014-Aug-27 08:33N 37°57' E 023°38'0 0.0
2014-Aug-27 07:33N 37°57' E 023°38'0 0.0
2014-Aug-27 06:33N 37°57' E 023°38'0 0.0
2014-Aug-27 05:33N 37°57' E 023°38'0 0.0
2014-Aug-27 04:33N 37°57' E 023°38'0 0.0
2014-Aug-27 03:33N 37°57' E 023°38'1111.1
2014-Aug-27 02:33N 37°46' E 023°42'4619.5
2014-Aug-27 00:13N 37°02' E 023°55'1519.4
2014-Aug-26 23:27N 36°47' E 023°57'1819.6
2014-Aug-26 22:32N 36°29' E 024°00'15 0.7
2014-Aug-26 00:33N 36°14' E 024°05'2019.6
2014-Aug-25 23:32N 36°34' E 024°00'6519.8
2014-Aug-25 20:15N 37°37' E 023°43'1419.7
2014-Aug-25 19:33N 37°50' E 023°37'7 6.7
2014-Aug-25 18:33N 37°57' E 023°38'0 0.0
2014-Aug-25 17:33N 37°57' E 023°38'0 0.0
2014-Aug-25 16:33N 37°57' E 023°38'0 0.0
2014-Aug-25 15:33N 37°57' E 023°38'0 0.0
2014-Aug-25 14:33N 37°57' E 023°38'0 0.0
2014-Aug-25 13:33N 37°57' E 023°38'0 0.0
2014-Aug-25 12:33N 37°57' E 023°38'0 0.0
2014-Aug-25 11:33N 37°57' E 023°38'0 0.0
2014-Aug-25 10:33N 37°57' E 023°38'0 0.0
2014-Aug-25 09:33N 37°57' E 023°38'0 0.0
2014-Aug-25 08:33N 37°57' E 023°38'0 0.0
2014-Aug-25 07:33N 37°57' E 023°38'0 0.0
2014-Aug-25 06:33N 37°57' E 023°38'0 0.0
2014-Aug-25 05:33N 37°57' E 023°38'0 0.0
2014-Aug-25 04:33N 37°57' E 023°38'0 0.0
2014-Aug-25 03:32N 37°57' E 023°38'1111.2
2014-Aug-25 02:33N 37°46' E 023°43'79 6.0
2014-Aug-24 13:17N 36°28' E 024°01'6222.4
2014-Aug-24 10:31N 37°29' E 023°46'2121.9
2014-Aug-24 09:33N 37°49' E 023°38'8 7.8
2014-Aug-24 08:33N 37°57' E 023°38'0 0.0
2014-Aug-24 07:33N 37°57' E 023°38'0 0.0
2014-Aug-24 06:33N 37°57' E 023°38'0 0.0
2014-Aug-24 05:33N 37°57' E 023°38'0 0.0
2014-Aug-24 04:33N 37°57' E 023°38'0 0.0
2014-Aug-24 03:33N 37°57' E 023°38'8 8.4
2014-Aug-24 02:33N 37°49' E 023°40'2120.0
2014-Aug-24 01:31N 37°29' E 023°47'2019.8
2014-Aug-24 00:30N 37°09' E 023°54'2219.8
2014-Aug-23 23:23N 36°47' E 023°56'2120.0
2014-Aug-23 22:21N 36°27' E 024°00'92 4.9
2014-Aug-23 03:33N 37°57' E 023°38'9 8.9
2014-Aug-23 02:33N 37°48' E 023°42'2019.6
2014-Aug-23 01:33N 37°29' E 023°48'2019.4
2014-Aug-23 00:32N 37°10' E 023°52'6719.6
2014-Aug-22 21:08N 36°04' E 024°07'71 7.2
2014-Aug-22 11:15N 37°14' E 023°50'1822.3
2014-Aug-22 10:26N 37°31' E 023°45'2022.1
2014-Aug-22 09:33N 37°50' E 023°37'7 7.2
2014-Aug-22 08:33N 37°57' E 023°38'0 0.0
2014-Aug-22 07:33N 37°57' E 023°38'0 0.0
2014-Aug-22 06:33N 37°57' E 023°38'0 0.0
2014-Aug-22 05:33N 37°57' E 023°38'0 0.0
2014-Aug-22 04:33N 37°57' E 023°38'0 0.0
2014-Aug-22 03:33N 37°57' E 023°38'9 8.7
2014-Aug-22 02:33N 37°49' E 023°42'2019.8
2014-Aug-22 01:33N 37°29' E 023°48'2119.7
2014-Aug-22 00:30N 37°09' E 023°52'2019.7
2014-Aug-21 23:30N 36°50' E 023°57'1919.8
2014-Aug-21 22:33N 36°31' E 024°01'2620.0
2014-Aug-21 21:14N 36°05' E 024°07'1420.4
2014-Aug-21 20:32N 35°51' E 024°10'22 4.9
2014-Aug-21 16:05N 35°29' E 024°11'5521.5
2014-Aug-21 13:30N 36°24' E 024°02'2222.3
2014-Aug-21 12:32N 36°45' E 023°58'3222.7
2014-Aug-21 11:08N 37°16' E 023°49'1322.3
2014-Aug-21 10:32N 37°29' E 023°46'2222.1
2014-Aug-21 09:33N 37°50' E 023°37'7 7.0
2014-Aug-21 08:33N 37°57' E 023°38'0 0.0
2014-Aug-21 07:33N 37°57' E 023°38'0 0.0
2014-Aug-21 06:33N 37°57' E 023°38'0 0.0
2014-Aug-21 05:33N 37°57' E 023°38'0 0.0
2014-Aug-21 04:33N 37°57' E 023°38'0 0.0
2014-Aug-21 03:33N 37°57' E 023°38'9 8.9
2014-Aug-21 02:33N 37°48' E 023°41'2419.0
2014-Aug-21 01:17N 37°25' E 023°49'1519.2
2014-Aug-21 00:30N 37°10' E 023°52'3819.6
2014-Aug-20 22:33N 36°32' E 023°60'2619.9
2014-Aug-20 21:14N 36°07' E 024°06'3620.3
2014-Aug-20 19:27N 35°31' E 024°12'12813.8
2014-Aug-20 10:11N 37°36' E 023°43'1422.3
2014-Aug-20 09:33N 37°50' E 023°37'7 7.4
2014-Aug-20 08:33N 37°57' E 023°38'0 0.0
2014-Aug-20 07:33N 37°57' E 023°38'0 0.0
2014-Aug-20 06:33N 37°57' E 023°38'0 0.0
2014-Aug-20 05:33N 37°57' E 023°38'0 0.0
2014-Aug-20 04:33N 37°57' E 023°38'0 0.0
2014-Aug-20 03:33N 37°57' E 023°38'1211.5
2014-Aug-20 02:33N 37°46' E 023°42'10 0.3
2014-Aug-18 20:23N 37°36' E 023°43'1618.8
2014-Aug-18 19:33N 37°51' E 023°37'6 6.4
2014-Aug-18 18:33N 37°57' E 023°38'0 0.0
2014-Aug-18 17:33N 37°57' E 023°38'0 0.0
2014-Aug-18 16:33N 37°57' E 023°38'0 0.0
2014-Aug-18 15:33N 37°57' E 023°38'0 0.0
2014-Aug-18 14:33N 37°57' E 023°38'0 0.0
2014-Aug-18 13:33N 37°57' E 023°38'0 0.0
2014-Aug-18 12:33N 37°57' E 023°38'0 0.0
2014-Aug-18 11:34N 37°57' E 023°38'0 0.0
2014-Aug-18 10:33N 37°57' E 023°38'0 0.0
2014-Aug-18 09:33N 37°57' E 023°38'0 0.0
2014-Aug-18 08:33N 37°57' E 023°38'0 0.0
2014-Aug-18 07:33N 37°57' E 023°38'0 0.0
2014-Aug-18 06:33N 37°57' E 023°38'0 0.0
2014-Aug-18 05:33N 37°57' E 023°38'0 0.0
2014-Aug-18 04:33N 37°57' E 023°38'1 1.1
2014-Aug-18 03:31N 37°56' E 023°37'1717.4
2014-Aug-18 02:33N 37°41' E 023°45'  

Dump ship's entire track history